sensor_id;sensor_type;location;lat;lon;timestamp;temperature;humidity
16970;DHT22;8601;48.718;8.992;2023-12-22T00:01:25;6.90;99.90
16970;DHT22;8601;48.718;8.992;2023-12-22T00:03:51;7.00;99.90
16970;DHT22;8601;48.718;8.992;2023-12-22T00:06:18;6.90;99.90
16970;DHT22;8601;48.718;8.992;2023-12-22T00:08:46;7.00;99.90
16970;DHT22;8601;48.718;8.992;2023-12-22T00:11:13;6.90;99.90
16970;DHT22;8601;48.718;8.992;2023-12-22T00:13:40;7.00;99.90
16970;DHT22;8601;48.718;8.992;2023-12-22T00:16:07;7.00;99.90
16970;DHT22;8601;48.718;8.992;2023-12-22T00:18:34;7.00;99.90
16970;DHT22;8601;48.718;8.992;2023-12-22T00:21:01;6.90;99.90
16970;DHT22;8601;48.718;8.992;2023-12-22T00:23:27;7.00;99.90
16970;DHT22;8601;48.718;8.992;2023-12-22T00:25:55;7.00;99.90
16970;DHT22;8601;48.718;8.992;2023-12-22T00:28:22;7.00;99.90
16970;DHT22;8601;48.718;8.992;2023-12-22T00:30:49;7.00;99.90
16970;DHT22;8601;48.718;8.992;2023-12-22T00:33:16;7.00;99.90
16970;DHT22;8601;48.718;8.992;2023-12-22T00:35:45;6.90;99.90
16970;DHT22;8601;48.718;8.992;2023-12-22T00:38:11;7.00;99.90
16970;DHT22;8601;48.718;8.992;2023-12-22T00:40:38;7.00;99.90
16970;DHT22;8601;48.718;8.992;2023-12-22T00:43:15;7.00;99.90
16970;DHT22;8601;48.718;8.992;2023-12-22T00:45:42;7.10;99.90
16970;DHT22;8601;48.718;8.992;2023-12-22T00:48:11;7.00;99.90
16970;DHT22;8601;48.718;8.992;2023-12-22T00:50:38;7.00;99.90
16970;DHT22;8601;48.718;8.992;2023-12-22T00:53:05;6.90;99.90
16970;DHT22;8601;48.718;8.992;2023-12-22T00:55:31;7.00;99.90
16970;DHT22;8601;48.718;8.992;2023-12-22T00:57:58;7.00;99.90
16970;DHT22;8601;48.718;8.992;2023-12-22T01:00:33;7.00;99.90
16970;DHT22;8601;48.718;8.992;2023-12-22T01:03:00;7.00;99.90
16970;DHT22;8601;48.718;8.992;2023-12-22T01:05:27;6.90;99.90
16970;DHT22;8601;48.718;8.992;2023-12-22T01:07:54;6.90;99.90
16970;DHT22;8601;48.718;8.992;2023-12-22T01:10:21;6.90;99.90
16970;DHT22;8601;48.718;8.992;2023-12-22T01:12:47;6.90;99.90
16970;DHT22;8601;48.718;8.992;2023-12-22T01:15:15;6.90;99.90
16970;DHT22;8601;48.718;8.992;2023-12-22T01:17:48;6.80;99.90
16970;DHT22;8601;48.718;8.992;2023-12-22T01:20:16;6.90;99.90
16970;DHT22;8601;48.718;8.992;2023-12-22T01:22:43;6.90;99.90
16970;DHT22;8601;48.718;8.992;2023-12-22T01:25:10;6.90;99.90
16970;DHT22;8601;48.718;8.992;2023-12-22T01:27:38;6.80;99.90
16970;DHT22;8601;48.718;8.992;2023-12-22T01:30:06;6.80;99.90
16970;DHT22;8601;48.718;8.992;2023-12-22T01:32:34;6.80;99.90
16970;DHT22;8601;48.718;8.992;2023-12-22T01:35:04;6.90;99.90
16970;DHT22;8601;48.718;8.992;2023-12-22T01:37:35;6.80;99.90
16970;DHT22;8601;48.718;8.992;2023-12-22T01:40:02;6.80;99.90
16970;DHT22;8601;48.718;8.992;2023-12-22T01:42:28;6.70;99.90
16970;DHT22;8601;48.718;8.992;2023-12-22T01:44:55;6.80;99.90
16970;DHT22;8601;48.718;8.992;2023-12-22T01:47:23;6.80;99.90
16970;DHT22;8601;48.718;8.992;2023-12-22T01:49:50;6.80;99.90
16970;DHT22;8601;48.718;8.992;2023-12-22T01:52:19;6.70;99.90
16970;DHT22;8601;48.718;8.992;2023-12-22T01:54:48;6.70;99.90
16970;DHT22;8601;48.718;8.992;2023-12-22T01:57:16;6.70;99.90
16970;DHT22;8601;48.718;8.992;2023-12-22T01:59:44;6.70;99.90
16970;DHT22;8601;48.718;8.992;2023-12-22T02:02:11;6.80;99.90
16970;DHT22;8601;48.718;8.992;2023-12-22T02:04:37;6.70;99.90
16970;DHT22;8601;48.718;8.992;2023-12-22T02:07:04;6.70;99.90
16970;DHT22;8601;48.718;8.992;2023-12-22T02:09:35;6.60;99.90
16970;DHT22;8601;48.718;8.992;2023-12-22T02:12:03;6.70;99.90
16970;DHT22;8601;48.718;8.992;2023-12-22T02:14:32;6.70;99.90
16970;DHT22;8601;48.718;8.992;2023-12-22T02:17:10;6.60;99.90
16970;DHT22;8601;48.718;8.992;2023-12-22T02:19:42;6.60;99.90
16970;DHT22;8601;48.718;8.992;2023-12-22T02:22:12;6.70;99.90
16970;DHT22;8601;48.718;8.992;2023-12-22T02:24:41;6.60;99.90
16970;DHT22;8601;48.718;8.992;2023-12-22T02:27:22;6.60;99.90
16970;DHT22;8601;48.718;8.992;2023-12-22T02:29:56;6.60;99.90
16970;DHT22;8601;48.718;8.992;2023-12-22T02:32:27;6.60;99.90
16970;DHT22;8601;48.718;8.992;2023-12-22T02:34:56;6.60;99.90
16970;DHT22;8601;48.718;8.992;2023-12-22T02:37:26;6.70;99.90
16970;DHT22;8601;48.718;8.992;2023-12-22T02:39:55;6.70;99.90
16970;DHT22;8601;48.718;8.992;2023-12-22T02:42:23;6.70;99.90
16970;DHT22;8601;48.718;8.992;2023-12-22T02:44:55;6.70;99.90
16970;DHT22;8601;48.718;8.992;2023-12-22T02:47:22;6.70;99.90
16970;DHT22;8601;48.718;8.992;2023-12-22T02:49:49;6.70;99.90
16970;DHT22;8601;48.718;8.992;2023-12-22T02:52:16;6.80;99.90
16970;DHT22;8601;48.718;8.992;2023-12-22T02:54:43;6.70;99.90
16970;DHT22;8601;48.718;8.992;2023-12-22T02:57:11;6.80;99.90
16970;DHT22;8601;48.718;8.992;2023-12-22T02:59:38;6.80;99.90
16970;DHT22;8601;48.718;8.992;2023-12-22T03:02:04;6.80;99.90
16970;DHT22;8601;48.718;8.992;2023-12-22T03:04:31;6.80;99.90
16970;DHT22;8601;48.718;8.992;2023-12-22T03:06:58;6.90;99.90
16970;DHT22;8601;48.718;8.992;2023-12-22T03:09:25;6.90;99.90
16970;DHT22;8601;48.718;8.992;2023-12-22T03:11:51;6.80;99.90
16970;DHT22;8601;48.718;8.992;2023-12-22T03:14:21;6.80;99.90
16970;DHT22;8601;48.718;8.992;2023-12-22T03:16:49;6.80;99.90
16970;DHT22;8601;48.718;8.992;2023-12-22T03:19:24;6.90;99.90
16970;DHT22;8601;48.718;8.992;2023-12-22T03:21:51;6.80;99.90
16970;DHT22;8601;48.718;8.992;2023-12-22T03:24:18;6.80;99.90
16970;DHT22;8601;48.718;8.992;2023-12-22T03:26:46;6.70;99.90
16970;DHT22;8601;48.718;8.992;2023-12-22T03:29:13;6.70;99.90
16970;DHT22;8601;48.718;8.992;2023-12-22T03:31:41;6.80;99.90
16970;DHT22;8601;48.718;8.992;2023-12-22T03:34:09;6.70;99.90
16970;DHT22;8601;48.718;8.992;2023-12-22T03:36:36;6.70;99.90
16970;DHT22;8601;48.718;8.992;2023-12-22T03:39:03;6.70;99.90
16970;DHT22;8601;48.718;8.992;2023-12-22T03:41:30;6.80;99.90
16970;DHT22;8601;48.718;8.992;2023-12-22T03:43:57;6.80;99.90
16970;DHT22;8601;48.718;8.992;2023-12-22T03:46:24;6.80;99.90
16970;DHT22;8601;48.718;8.992;2023-12-22T03:48:52;6.80;99.90
16970;DHT22;8601;48.718;8.992;2023-12-22T03:51:20;6.90;99.90
16970;DHT22;8601;48.718;8.992;2023-12-22T03:53:46;6.80;99.90
16970;DHT22;8601;48.718;8.992;2023-12-22T03:56:20;6.80;99.90
16970;DHT22;8601;48.718;8.992;2023-12-22T03:58:53;6.80;99.90
16970;DHT22;8601;48.718;8.992;2023-12-22T04:01:19;6.80;99.90
16970;DHT22;8601;48.718;8.992;2023-12-22T04:03:46;6.70;99.90
16970;DHT22;8601;48.718;8.992;2023-12-22T04:06:14;6.70;99.90
16970;DHT22;8601;48.718;8.992;2023-12-22T04:08:41;6.70;99.90
16970;DHT22;8601;48.718;8.992;2023-12-22T04:11:08;6.70;99.90
16970;DHT22;8601;48.718;8.992;2023-12-22T04:13:36;6.80;99.90
16970;DHT22;8601;48.718;8.992;2023-12-22T04:16:03;6.80;99.90
16970;DHT22;8601;48.718;8.992;2023-12-22T04:18:30;6.70;99.90
16970;DHT22;8601;48.718;8.992;2023-12-22T04:20:59;6.70;99.90
16970;DHT22;8601;48.718;8.992;2023-12-22T04:23:28;6.70;99.90
16970;DHT22;8601;48.718;8.992;2023-12-22T04:25:55;6.60;99.90
16970;DHT22;8601;48.718;8.992;2023-12-22T04:28:22;6.50;99.90
16970;DHT22;8601;48.718;8.992;2023-12-22T04:30:49;6.50;99.90
16970;DHT22;8601;48.718;8.992;2023-12-22T04:33:16;6.40;99.90
16970;DHT22;8601;48.718;8.992;2023-12-22T04:35:43;6.30;99.90
16970;DHT22;8601;48.718;8.992;2023-12-22T04:38:10;6.30;99.90
16970;DHT22;8601;48.718;8.992;2023-12-22T04:40:38;6.30;99.90
16970;DHT22;8601;48.718;8.992;2023-12-22T04:43:05;6.30;99.90
16970;DHT22;8601;48.718;8.992;2023-12-22T04:45:32;6.40;99.90
16970;DHT22;8601;48.718;8.992;2023-12-22T04:47:59;6.30;99.90
16970;DHT22;8601;48.718;8.992;2023-12-22T04:50:26;6.30;99.90
16970;DHT22;8601;48.718;8.992;2023-12-22T04:52:54;6.30;99.90
16970;DHT22;8601;48.718;8.992;2023-12-22T04:55:21;6.30;99.90
16970;DHT22;8601;48.718;8.992;2023-12-22T04:57:49;6.30;99.90
16970;DHT22;8601;48.718;8.992;2023-12-22T05:00:17;6.30;99.90
16970;DHT22;8601;48.718;8.992;2023-12-22T05:02:44;6.40;99.90
16970;DHT22;8601;48.718;8.992;2023-12-22T05:05:11;6.40;99.90
16970;DHT22;8601;48.718;8.992;2023-12-22T05:07:38;6.50;99.90
16970;DHT22;8601;48.718;8.992;2023-12-22T05:10:06;6.50;99.90
16970;DHT22;8601;48.718;8.992;2023-12-22T05:12:35;6.40;99.90
16970;DHT22;8601;48.718;8.992;2023-12-22T05:15:04;6.50;99.90
16970;DHT22;8601;48.718;8.992;2023-12-22T05:17:31;6.50;99.90
16970;DHT22;8601;48.718;8.992;2023-12-22T05:19:59;6.50;99.90
16970;DHT22;8601;48.718;8.992;2023-12-22T05:22:26;6.60;99.90
16970;DHT22;8601;48.718;8.992;2023-12-22T05:24:55;6.60;99.90
16970;DHT22;8601;48.718;8.992;2023-12-22T05:27:22;6.60;99.90
16970;DHT22;8601;48.718;8.992;2023-12-22T05:29:49;6.60;99.90
16970;DHT22;8601;48.718;8.992;2023-12-22T05:32:17;6.60;99.90
16970;DHT22;8601;48.718;8.992;2023-12-22T05:34:43;6.60;99.90
16970;DHT22;8601;48.718;8.992;2023-12-22T05:37:10;6.60;99.90
16970;DHT22;8601;48.718;8.992;2023-12-22T05:39:37;6.60;99.90
16970;DHT22;8601;48.718;8.992;2023-12-22T05:42:04;6.70;99.90
16970;DHT22;8601;48.718;8.992;2023-12-22T05:44:32;6.70;99.90
16970;DHT22;8601;48.718;8.992;2023-12-22T05:46:59;6.80;99.90
16970;DHT22;8601;48.718;8.992;2023-12-22T05:49:28;6.80;99.90
16970;DHT22;8601;48.718;8.992;2023-12-22T05:52:03;6.70;99.90
16970;DHT22;8601;48.718;8.992;2023-12-22T05:54:30;6.80;99.90
16970;DHT22;8601;48.718;8.992;2023-12-22T05:56:57;6.80;99.90
16970;DHT22;8601;48.718;8.992;2023-12-22T05:59:29;6.80;99.90
16970;DHT22;8601;48.718;8.992;2023-12-22T06:01:58;6.80;99.90
16970;DHT22;8601;48.718;8.992;2023-12-22T06:04:25;6.80;99.90
16970;DHT22;8601;48.718;8.992;2023-12-22T06:06:53;6.80;99.90
16970;DHT22;8601;48.718;8.992;2023-12-22T06:09:20;6.70;99.90
16970;DHT22;8601;48.718;8.992;2023-12-22T06:11:48;6.70;99.90
16970;DHT22;8601;48.718;8.992;2023-12-22T06:14:15;6.70;99.90
16970;DHT22;8601;48.718;8.992;2023-12-22T06:16:42;6.70;99.90
16970;DHT22;8601;48.718;8.992;2023-12-22T06:19:09;6.70;99.90
16970;DHT22;8601;48.718;8.992;2023-12-22T06:21:38;6.70;99.90
16970;DHT22;8601;48.718;8.992;2023-12-22T06:24:07;6.70;99.90
16970;DHT22;8601;48.718;8.992;2023-12-22T06:26:35;6.70;99.90
16970;DHT22;8601;48.718;8.992;2023-12-22T06:29:09;6.70;99.90
16970;DHT22;8601;48.718;8.992;2023-12-22T06:31:37;6.70;99.90
16970;DHT22;8601;48.718;8.992;2023-12-22T06:34:09;6.70;99.90
16970;DHT22;8601;48.718;8.992;2023-12-22T06:36:51;6.70;99.90
16970;DHT22;8601;48.718;8.992;2023-12-22T06:39:20;6.70;99.90
16970;DHT22;8601;48.718;8.992;2023-12-22T06:41:54;6.70;99.90
16970;DHT22;8601;48.718;8.992;2023-12-22T06:44:21;6.70;99.90
16970;DHT22;8601;48.718;8.992;2023-12-22T06:46:49;6.70;99.90
16970;DHT22;8601;48.718;8.992;2023-12-22T06:49:16;6.70;99.90
16970;DHT22;8601;48.718;8.992;2023-12-22T06:51:42;6.70;99.90
16970;DHT22;8601;48.718;8.992;2023-12-22T06:54:09;6.50;99.90
16970;DHT22;8601;48.718;8.992;2023-12-22T06:56:37;6.40;99.90
16970;DHT22;8601;48.718;8.992;2023-12-22T06:59:06;6.20;99.90
16970;DHT22;8601;48.718;8.992;2023-12-22T07:01:35;6.20;99.90
16970;DHT22;8601;48.718;8.992;2023-12-22T07:04:03;6.10;99.90
16970;DHT22;8601;48.718;8.992;2023-12-22T07:06:36;6.10;99.90
16970;DHT22;8601;48.718;8.992;2023-12-22T07:09:29;6.10;99.90
16970;DHT22;8601;48.718;8.992;2023-12-22T07:11:57;6.10;99.90
16970;DHT22;8601;48.718;8.992;2023-12-22T07:14:24;6.10;99.90
16970;DHT22;8601;48.718;8.992;2023-12-22T07:16:51;6.10;99.90
16970;DHT22;8601;48.718;8.992;2023-12-22T07:19:18;6.10;99.90
16970;DHT22;8601;48.718;8.992;2023-12-22T07:21:46;6.20;99.90
16970;DHT22;8601;48.718;8.992;2023-12-22T07:24:13;6.20;99.90
16970;DHT22;8601;48.718;8.992;2023-12-22T07:26:39;6.20;99.90
16970;DHT22;8601;48.718;8.992;2023-12-22T07:29:09;6.30;99.90
16970;DHT22;8601;48.718;8.992;2023-12-22T07:31:42;6.20;99.90
16970;DHT22;8601;48.718;8.992;2023-12-22T07:34:09;6.20;99.90
16970;DHT22;8601;48.718;8.992;2023-12-22T07:36:36;6.10;99.90
16970;DHT22;8601;48.718;8.992;2023-12-22T07:39:03;6.00;99.90
16970;DHT22;8601;48.718;8.992;2023-12-22T07:41:30;6.10;99.90
16970;DHT22;8601;48.718;8.992;2023-12-22T07:43:57;6.00;99.90
16970;DHT22;8601;48.718;8.992;2023-12-22T07:46:26;6.00;99.90
16970;DHT22;8601;48.718;8.992;2023-12-22T07:48:55;5.90;99.90
16970;DHT22;8601;48.718;8.992;2023-12-22T07:51:22;5.90;99.90
16970;DHT22;8601;48.718;8.992;2023-12-22T07:53:50;6.00;99.90
16970;DHT22;8601;48.718;8.992;2023-12-22T07:56:17;5.90;99.90
16970;DHT22;8601;48.718;8.992;2023-12-22T07:58:50;6.00;99.90
16970;DHT22;8601;48.718;8.992;2023-12-22T08:01:18;5.90;99.90
16970;DHT22;8601;48.718;8.992;2023-12-22T08:03:47;5.90;99.90
16970;DHT22;8601;48.718;8.992;2023-12-22T08:06:14;5.90;99.90
16970;DHT22;8601;48.718;8.992;2023-12-22T08:08:40;5.90;99.90
16970;DHT22;8601;48.718;8.992;2023-12-22T08:11:07;6.00;99.90
16970;DHT22;8601;48.718;8.992;2023-12-22T08:13:35;6.10;99.90
16970;DHT22;8601;48.718;8.992;2023-12-22T08:16:03;6.10;99.90
16970;DHT22;8601;48.718;8.992;2023-12-22T08:18:30;6.20;99.90
16970;DHT22;8601;48.718;8.992;2023-12-22T08:20:58;6.30;99.90
16970;DHT22;8601;48.718;8.992;2023-12-22T08:23:25;6.40;99.90
16970;DHT22;8601;48.718;8.992;2023-12-22T08:25:51;6.50;99.90
16970;DHT22;8601;48.718;8.992;2023-12-22T08:28:18;6.50;99.90
16970;DHT22;8601;48.718;8.992;2023-12-22T08:30:45;6.50;99.90
16970;DHT22;8601;48.718;8.992;2023-12-22T08:33:12;6.60;99.90
16970;DHT22;8601;48.718;8.992;2023-12-22T08:35:39;6.50;99.90
16970;DHT22;8601;48.718;8.992;2023-12-22T08:38:07;6.90;99.90
16970;DHT22;8601;48.718;8.992;2023-12-22T08:40:36;6.80;99.90
16970;DHT22;8601;48.718;8.992;2023-12-22T08:43:03;6.50;99.90
16970;DHT22;8601;48.718;8.992;2023-12-22T08:45:33;6.50;99.90
16970;DHT22;8601;48.718;8.992;2023-12-22T08:48:01;6.40;99.90
16970;DHT22;8601;48.718;8.992;2023-12-22T08:50:29;6.30;99.90
16970;DHT22;8601;48.718;8.992;2023-12-22T08:52:56;6.30;99.90
16970;DHT22;8601;48.718;8.992;2023-12-22T08:55:24;6.30;99.90
16970;DHT22;8601;48.718;8.992;2023-12-22T08:57:51;6.30;99.90
16970;DHT22;8601;48.718;8.992;2023-12-22T09:00:18;6.30;99.90
16970;DHT22;8601;48.718;8.992;2023-12-22T09:02:45;6.40;99.90
16970;DHT22;8601;48.718;8.992;2023-12-22T09:05:12;6.50;99.90
16970;DHT22;8601;48.718;8.992;2023-12-22T09:07:39;6.50;99.90
16970;DHT22;8601;48.718;8.992;2023-12-22T09:10:06;6.60;99.90
16970;DHT22;8601;48.718;8.992;2023-12-22T09:12:35;6.60;99.90
16970;DHT22;8601;48.718;8.992;2023-12-22T09:15:02;6.70;99.90
16970;DHT22;8601;48.718;8.992;2023-12-22T09:17:30;6.70;99.90
16970;DHT22;8601;48.718;8.992;2023-12-22T09:19:57;6.80;99.90
16970;DHT22;8601;48.718;8.992;2023-12-22T09:22:24;6.80;99.90
16970;DHT22;8601;48.718;8.992;2023-12-22T09:24:51;6.80;99.90
16970;DHT22;8601;48.718;8.992;2023-12-22T09:27:18;6.80;99.90
16970;DHT22;8601;48.718;8.992;2023-12-22T09:29:47;6.80;99.90
16970;DHT22;8601;48.718;8.992;2023-12-22T09:32:17;6.80;99.90
16970;DHT22;8601;48.718;8.992;2023-12-22T09:34:43;6.80;99.90
16970;DHT22;8601;48.718;8.992;2023-12-22T09:37:10;7.20;99.90
16970;DHT22;8601;48.718;8.992;2023-12-22T09:39:37;7.00;99.90
16970;DHT22;8601;48.718;8.992;2023-12-22T09:42:05;6.90;99.90
16970;DHT22;8601;48.718;8.992;2023-12-22T09:44:32;6.90;99.90
16970;DHT22;8601;48.718;8.992;2023-12-22T09:47:04;6.90;99.90
16970;DHT22;8601;48.718;8.992;2023-12-22T09:49:32;6.90;99.90
16970;DHT22;8601;48.718;8.992;2023-12-22T09:52:06;6.90;99.90
16970;DHT22;8601;48.718;8.992;2023-12-22T09:54:36;6.90;99.90
16970;DHT22;8601;48.718;8.992;2023-12-22T09:57:05;7.00;99.90
16970;DHT22;8601;48.718;8.992;2023-12-22T09:59:34;6.90;99.90
16970;DHT22;8601;48.718;8.992;2023-12-22T10:02:04;7.00;99.90
16970;DHT22;8601;48.718;8.992;2023-12-22T10:04:33;7.00;99.90
16970;DHT22;8601;48.718;8.992;2023-12-22T10:07:01;7.20;99.90
16970;DHT22;8601;48.718;8.992;2023-12-22T10:09:30;7.10;99.90
16970;DHT22;8601;48.718;8.992;2023-12-22T10:11:59;7.10;99.90
16970;DHT22;8601;48.718;8.992;2023-12-22T10:14:29;7.10;99.90
16970;DHT22;8601;48.718;8.992;2023-12-22T10:16:57;7.00;99.90
16970;DHT22;8601;48.718;8.992;2023-12-22T10:19:25;7.00;99.90
16970;DHT22;8601;48.718;8.992;2023-12-22T10:21:52;7.10;99.90
16970;DHT22;8601;48.718;8.992;2023-12-22T10:24:38;7.10;99.90
16970;DHT22;8601;48.718;8.992;2023-12-22T10:27:06;7.10;99.90
16970;DHT22;8601;48.718;8.992;2023-12-22T10:29:34;7.10;99.90
16970;DHT22;8601;48.718;8.992;2023-12-22T10:32:02;7.10;99.90
16970;DHT22;8601;48.718;8.992;2023-12-22T10:34:32;7.10;99.90
16970;DHT22;8601;48.718;8.992;2023-12-22T10:37:00;7.10;99.90
16970;DHT22;8601;48.718;8.992;2023-12-22T10:39:27;7.10;99.90
16970;DHT22;8601;48.718;8.992;2023-12-22T10:41:56;7.10;99.90
16970;DHT22;8601;48.718;8.992;2023-12-22T10:44:24;7.10;99.90
16970;DHT22;8601;48.718;8.992;2023-12-22T10:46:53;7.10;99.90
16970;DHT22;8601;48.718;8.992;2023-12-22T10:49:20;7.10;99.90
16970;DHT22;8601;48.718;8.992;2023-12-22T10:51:50;7.00;99.90
16970;DHT22;8601;48.718;8.992;2023-12-22T10:54:18;7.00;99.90
16970;DHT22;8601;48.718;8.992;2023-12-22T10:56:45;6.90;99.90
16970;DHT22;8601;48.718;8.992;2023-12-22T10:59:12;7.10;99.90
16970;DHT22;8601;48.718;8.992;2023-12-22T11:01:40;7.00;99.90
16970;DHT22;8601;48.718;8.992;2023-12-22T11:04:10;7.00;99.90
16970;DHT22;8601;48.718;8.992;2023-12-22T11:06:41;6.90;99.90
16970;DHT22;8601;48.718;8.992;2023-12-22T11:09:10;6.90;99.90
16970;DHT22;8601;48.718;8.992;2023-12-22T11:11:39;6.90;99.90
16970;DHT22;8601;48.718;8.992;2023-12-22T11:14:07;6.90;99.90
16970;DHT22;8601;48.718;8.992;2023-12-22T11:16:36;6.90;99.90
16970;DHT22;8601;48.718;8.992;2023-12-22T11:19:04;6.90;99.90
16970;DHT22;8601;48.718;8.992;2023-12-22T11:21:31;6.90;99.90
16970;DHT22;8601;48.718;8.992;2023-12-22T11:23:59;6.90;99.90
16970;DHT22;8601;48.718;8.992;2023-12-22T11:26:31;6.90;99.90
16970;DHT22;8601;48.718;8.992;2023-12-22T11:28:58;6.90;99.90
16970;DHT22;8601;48.718;8.992;2023-12-22T11:31:26;6.80;99.90
16970;DHT22;8601;48.718;8.992;2023-12-22T11:33:56;6.70;99.90
16970;DHT22;8601;48.718;8.992;2023-12-22T11:36:25;6.70;99.90
16970;DHT22;8601;48.718;8.992;2023-12-22T11:38:53;6.60;99.90
16970;DHT22;8601;48.718;8.992;2023-12-22T11:41:25;6.50;99.90
16970;DHT22;8601;48.718;8.992;2023-12-22T11:43:56;6.50;99.90
16970;DHT22;8601;48.718;8.992;2023-12-22T11:46:23;6.50;99.90
16970;DHT22;8601;48.718;8.992;2023-12-22T11:48:51;6.50;99.90
16970;DHT22;8601;48.718;8.992;2023-12-22T11:51:19;6.50;99.90
16970;DHT22;8601;48.718;8.992;2023-12-22T11:53:47;6.50;99.90
16970;DHT22;8601;48.718;8.992;2023-12-22T11:56:14;6.50;99.90
16970;DHT22;8601;48.718;8.992;2023-12-22T11:58:44;6.50;99.90
16970;DHT22;8601;48.718;8.992;2023-12-22T12:01:18;6.50;99.90
16970;DHT22;8601;48.718;8.992;2023-12-22T12:03:49;6.50;99.90
16970;DHT22;8601;48.718;8.992;2023-12-22T12:06:23;6.50;99.90
16970;DHT22;8601;48.718;8.992;2023-12-22T12:08:57;6.50;99.90
16970;DHT22;8601;48.718;8.992;2023-12-22T12:14:37;6.40;99.90
16970;DHT22;8601;48.718;8.992;2023-12-22T12:17:15;6.30;99.90
16970;DHT22;8601;48.718;8.992;2023-12-22T12:19:44;6.40;99.90
16970;DHT22;8601;48.718;8.992;2023-12-22T12:22:17;6.40;99.90
16970;DHT22;8601;48.718;8.992;2023-12-22T12:24:44;6.40;99.90
16970;DHT22;8601;48.718;8.992;2023-12-22T12:27:11;6.30;99.90
16970;DHT22;8601;48.718;8.992;2023-12-22T12:29:43;6.30;99.90
16970;DHT22;8601;48.718;8.992;2023-12-22T12:32:15;6.40;99.90
16970;DHT22;8601;48.718;8.992;2023-12-22T12:34:42;6.30;99.90
16970;DHT22;8601;48.718;8.992;2023-12-22T12:37:10;6.30;99.90
16970;DHT22;8601;48.718;8.992;2023-12-22T12:39:39;6.60;99.90
16970;DHT22;8601;48.718;8.992;2023-12-22T12:42:07;6.50;99.90
16970;DHT22;8601;48.718;8.992;2023-12-22T12:44:35;6.40;99.90
16970;DHT22;8601;48.718;8.992;2023-12-22T12:47:11;6.40;99.90
16970;DHT22;8601;48.718;8.992;2023-12-22T12:49:39;6.50;99.90
16970;DHT22;8601;48.718;8.992;2023-12-22T12:52:12;6.60;99.90
16970;DHT22;8601;48.718;8.992;2023-12-22T12:54:40;6.60;99.90
16970;DHT22;8601;48.718;8.992;2023-12-22T12:57:14;6.60;99.90
16970;DHT22;8601;48.718;8.992;2023-12-22T12:59:45;6.70;99.90
16970;DHT22;8601;48.718;8.992;2023-12-22T13:02:13;6.70;99.90
16970;DHT22;8601;48.718;8.992;2023-12-22T13:04:41;6.70;99.90
16970;DHT22;8601;48.718;8.992;2023-12-22T13:07:11;6.80;99.90
16970;DHT22;8601;48.718;8.992;2023-12-22T13:09:40;6.80;99.90
16970;DHT22;8601;48.718;8.992;2023-12-22T13:12:08;6.80;99.90
16970;DHT22;8601;48.718;8.992;2023-12-22T13:14:36;6.80;99.90
16970;DHT22;8601;48.718;8.992;2023-12-22T13:17:03;6.90;99.90
16970;DHT22;8601;48.718;8.992;2023-12-22T13:19:32;7.00;99.90
16970;DHT22;8601;48.718;8.992;2023-12-22T13:22:02;7.20;99.90
16970;DHT22;8601;48.718;8.992;2023-12-22T13:24:29;7.40;99.90
16970;DHT22;8601;48.718;8.992;2023-12-22T13:27:04;7.50;99.90
16970;DHT22;8601;48.718;8.992;2023-12-22T13:29:43;7.60;99.90
16970;DHT22;8601;48.718;8.992;2023-12-22T13:32:20;7.70;99.90
16970;DHT22;8601;48.718;8.992;2023-12-22T13:34:51;7.70;99.90
16970;DHT22;8601;48.718;8.992;2023-12-22T13:37:20;7.70;99.90
16970;DHT22;8601;48.718;8.992;2023-12-22T13:39:50;7.70;99.90
16970;DHT22;8601;48.718;8.992;2023-12-22T13:42:18;7.90;99.90
16970;DHT22;8601;48.718;8.992;2023-12-22T13:44:48;7.80;99.90
16970;DHT22;8601;48.718;8.992;2023-12-22T13:47:16;7.90;99.90
16970;DHT22;8601;48.718;8.992;2023-12-22T13:49:43;8.00;99.90
16970;DHT22;8601;48.718;8.992;2023-12-22T13:52:28;8.00;99.90
16970;DHT22;8601;48.718;8.992;2023-12-22T13:54:57;7.90;99.90
16970;DHT22;8601;48.718;8.992;2023-12-22T13:57:26;7.90;99.90
16970;DHT22;8601;48.718;8.992;2023-12-22T13:59:54;7.90;99.90
16970;DHT22;8601;48.718;8.992;2023-12-22T14:02:21;8.00;99.90
16970;DHT22;8601;48.718;8.992;2023-12-22T14:04:49;7.90;99.90
16970;DHT22;8601;48.718;8.992;2023-12-22T14:07:17;8.00;99.90
16970;DHT22;8601;48.718;8.992;2023-12-22T14:09:46;8.00;99.90
16970;DHT22;8601;48.718;8.992;2023-12-22T14:12:13;8.00;99.90
16970;DHT22;8601;48.718;8.992;2023-12-22T14:14:45;8.00;99.90
16970;DHT22;8601;48.718;8.992;2023-12-22T14:17:12;8.10;99.90
16970;DHT22;8601;48.718;8.992;2023-12-22T14:19:39;8.10;99.90
16970;DHT22;8601;48.718;8.992;2023-12-22T14:22:06;8.20;99.90
16970;DHT22;8601;48.718;8.992;2023-12-22T14:24:34;8.20;99.90
16970;DHT22;8601;48.718;8.992;2023-12-22T14:27:02;8.20;99.90
16970;DHT22;8601;48.718;8.992;2023-12-22T14:29:31;8.20;99.90
16970;DHT22;8601;48.718;8.992;2023-12-22T14:31:59;8.20;99.90
16970;DHT22;8601;48.718;8.992;2023-12-22T14:34:25;8.20;99.90
16970;DHT22;8601;48.718;8.992;2023-12-22T14:36:53;8.20;99.90
16970;DHT22;8601;48.718;8.992;2023-12-22T14:39:20;8.30;99.90
16970;DHT22;8601;48.718;8.992;2023-12-22T14:41:47;8.30;99.90
16970;DHT22;8601;48.718;8.992;2023-12-22T14:44:15;8.30;99.90
16970;DHT22;8601;48.718;8.992;2023-12-22T14:46:42;8.30;99.90
16970;DHT22;8601;48.718;8.992;2023-12-22T14:49:10;8.30;99.90
16970;DHT22;8601;48.718;8.992;2023-12-22T14:51:37;8.40;99.90
16970;DHT22;8601;48.718;8.992;2023-12-22T14:54:06;8.40;99.90
16970;DHT22;8601;48.718;8.992;2023-12-22T14:56:34;8.40;99.90
16970;DHT22;8601;48.718;8.992;2023-12-22T14:59:02;8.30;99.90
16970;DHT22;8601;48.718;8.992;2023-12-22T15:01:30;8.30;99.90
16970;DHT22;8601;48.718;8.992;2023-12-22T15:03:58;8.30;99.90
16970;DHT22;8601;48.718;8.992;2023-12-22T15:06:25;8.30;99.90
16970;DHT22;8601;48.718;8.992;2023-12-22T15:08:52;8.30;99.90
16970;DHT22;8601;48.718;8.992;2023-12-22T15:11:19;8.30;99.90
16970;DHT22;8601;48.718;8.992;2023-12-22T15:13:45;8.30;99.90
16970;DHT22;8601;48.718;8.992;2023-12-22T15:16:12;8.30;99.90
16970;DHT22;8601;48.718;8.992;2023-12-22T15:18:41;8.30;99.90
16970;DHT22;8601;48.718;8.992;2023-12-22T15:21:08;8.30;99.90
16970;DHT22;8601;48.718;8.992;2023-12-22T15:23:35;8.30;99.90
16970;DHT22;8601;48.718;8.992;2023-12-22T15:26:01;8.40;99.90
16970;DHT22;8601;48.718;8.992;2023-12-22T15:28:28;8.40;99.90
16970;DHT22;8601;48.718;8.992;2023-12-22T15:30:55;8.30;99.90
16970;DHT22;8601;48.718;8.992;2023-12-22T15:33:22;8.30;99.90
16970;DHT22;8601;48.718;8.992;2023-12-22T15:35:55;8.30;99.90
16970;DHT22;8601;48.718;8.992;2023-12-22T15:38:21;8.30;99.90
16970;DHT22;8601;48.718;8.992;2023-12-22T15:40:49;8.30;99.90
16970;DHT22;8601;48.718;8.992;2023-12-22T15:43:15;8.30;99.90
16970;DHT22;8601;48.718;8.992;2023-12-22T15:45:42;8.30;99.90
16970;DHT22;8601;48.718;8.992;2023-12-22T15:48:11;8.30;99.90
16970;DHT22;8601;48.718;8.992;2023-12-22T15:50:37;8.30;99.90
16970;DHT22;8601;48.718;8.992;2023-12-22T15:53:05;8.30;99.90
16970;DHT22;8601;48.718;8.992;2023-12-22T15:55:32;8.30;99.90
16970;DHT22;8601;48.718;8.992;2023-12-22T15:57:59;8.30;99.90
16970;DHT22;8601;48.718;8.992;2023-12-22T16:00:26;8.30;99.90
16970;DHT22;8601;48.718;8.992;2023-12-22T16:02:53;8.30;99.90
16970;DHT22;8601;48.718;8.992;2023-12-22T16:05:20;8.30;99.90
16970;DHT22;8601;48.718;8.992;2023-12-22T16:07:47;8.30;99.90
16970;DHT22;8601;48.718;8.992;2023-12-22T16:10:16;8.40;99.90
16970;DHT22;8601;48.718;8.992;2023-12-22T16:12:43;8.40;99.90